createdAt,value
2018-03-04T00:01:54.416Z,43.70
2018-03-04T00:04:22.424Z,37.37
2018-03-04T00:06:50.390Z,43.53
2018-03-04T00:09:18.477Z,35.80
2018-03-04T00:11:46.321Z,24.20
2018-03-04T00:14:14.310Z,25.10
2018-03-04T00:16:42.225Z,39.03
2018-03-04T00:19:10.154Z,31.83
2018-03-04T00:21:38.058Z,27.17
2018-03-04T00:24:06.531Z,32.47
2018-03-04T00:26:34.394Z,22.40
2018-03-04T00:29:02.377Z,26.23
2018-03-04T00:31:30.363Z,37.23
2018-03-04T00:33:58.284Z,36.03
2018-03-04T00:36:26.303Z,46.73
2018-03-04T00:38:54.198Z,40.43
2018-03-04T00:41:22.130Z,51.57
2018-03-04T00:43:50.061Z,50.50
2018-03-04T00:46:18.034Z,38.07
2018-03-04T00:48:45.983Z,42.93
2018-03-04T00:51:13.929Z,31.80
2018-03-04T00:53:41.858Z,36.53
2018-03-04T00:56:09.791Z,33.23
2018-03-04T00:58:37.753Z,47.90
2018-03-04T01:01:05.724Z,40.10
2018-03-04T01:03:33.737Z,61.17
2018-03-04T01:06:01.674Z,45.43
2018-03-04T01:08:29.584Z,36.70
2018-03-04T01:10:57.650Z,30.17
2018-03-04T01:13:25.663Z,18.17
2018-03-04T01:15:53.578Z,40.90
2018-03-04T01:18:21.547Z,50.10
2018-03-04T01:20:49.471Z,50.37
2018-03-04T01:23:17.452Z,37.60
2018-03-04T01:25:45.627Z,27.23
2018-03-04T01:28:13.639Z,39.53
2018-03-04T01:30:41.570Z,37.80
2018-03-04T01:33:09.549Z,35.47
2018-03-04T01:35:37.524Z,51.80
2018-03-04T01:38:05.457Z,36.97
2018-03-04T01:40:33.582Z,30.50
2018-03-04T01:43:01.660Z,27.70
2018-03-04T01:45:29.639Z,22.53
2018-03-04T01:47:57.620Z,28.80
2018-03-04T01:50:25.597Z,29.77
2018-03-04T01:52:53.530Z,23.53
2018-03-04T01:55:21.457Z,16.40
2018-03-04T01:57:49.377Z,20.97
2018-03-04T02:00:17.452Z,30.53
2018-03-04T02:02:45.392Z,28.90
2018-03-04T02:05:13.302Z,19.30
2018-03-04T02:07:41.398Z,23.50
2018-03-04T02:10:09.321Z,14.27
2018-03-04T02:12:37.234Z,17.57
2018-03-04T02:15:05.204Z,20.33
2018-03-04T02:17:33.172Z,12.60
2018-03-04T02:20:01.178Z,14.70
2018-03-04T02:22:29.166Z,16.33
2018-03-04T02:24:57.152Z,17.47
2018-03-04T02:27:25.488Z,23.03
2018-03-04T02:29:53.429Z,19.93
2018-03-04T02:32:21.353Z,11.37
2018-03-04T02:34:49.279Z,16.63
2018-03-04T02:37:17.237Z,12.70
2018-03-04T02:39:45.237Z,8.93
2018-03-04T02:42:13.178Z,10.53
2018-03-04T02:44:41.133Z,14.17
2018-03-04T02:47:09.101Z,8.80
2018-03-04T02:49:37.054Z,8.87
2018-03-04T02:52:04.912Z,14.10
2018-03-04T02:54:32.789Z,12.27
2018-03-04T02:57:00.740Z,18.27
2018-03-04T02:59:28.677Z,17.77
2018-03-04T03:01:56.646Z,21.80
2018-03-04T03:04:24.593Z,15.10
2018-03-04T03:06:52.607Z,14.97
2018-03-04T03:09:20.548Z,16.37
2018-03-04T03:11:48.529Z,18.50
2018-03-04T03:14:16.510Z,33.20
2018-03-04T03:16:44.446Z,26.50
2018-03-04T03:19:12.379Z,23.97
2018-03-04T03:21:40.387Z,21.00
2018-03-04T03:24:08.299Z,17.40
2018-03-04T03:26:36.266Z,16.57
2018-03-04T03:29:04.586Z,16.20
2018-03-04T03:31:32.484Z,13.73
2018-03-04T03:34:00.468Z,16.20
2018-03-04T03:36:28.416Z,17.97
2018-03-04T03:38:56.386Z,35.17
2018-03-04T03:41:24.341Z,16.57
2018-03-04T03:43:52.250Z,14.87
2018-03-04T03:46:20.234Z,23.30
2018-03-04T03:48:48.152Z,26.40
2018-03-04T03:51:16.075Z,36.10
2018-03-04T03:53:44.026Z,23.87
2018-03-04T03:56:11.950Z,24.50
2018-03-04T03:58:39.905Z,13.63
2018-03-04T04:01:07.853Z,15.90
2018-03-04T04:03:35.812Z,21.73
2018-03-04T04:06:03.791Z,19.40
2018-03-04T04:08:31.741Z,18.23
2018-03-04T04:10:59.722Z,27.53
2018-03-04T04:13:27.684Z,19.30
2018-03-04T04:15:55.653Z,21.83
2018-03-04T04:18:23.655Z,12.20
2018-03-04T04:20:51.674Z,14.77
2018-03-04T04:23:19.575Z,16.97
2018-03-04T04:25:47.472Z,8.90
2018-03-04T04:28:15.392Z,8.63
2018-03-04T04:30:43.892Z,9.43
2018-03-04T04:33:11.857Z,8.73
2018-03-04T04:35:39.797Z,8.13
2018-03-04T04:38:07.762Z,14.60
2018-03-04T04:40:35.681Z,9.30
2018-03-04T04:43:03.615Z,13.07
2018-03-04T04:45:31.581Z,10.10
2018-03-04T04:47:59.537Z,8.60
2018-03-04T04:50:27.529Z,11.60
2018-03-04T04:52:55.489Z,19.13
2018-03-04T04:55:23.495Z,34.10
2018-03-04T04:57:51.425Z,34.93
2018-03-04T05:00:19.393Z,20.80
2018-03-04T05:02:47.322Z,27.60
2018-03-04T05:05:15.268Z,15.37
2018-03-04T05:07:43.209Z,17.73
2018-03-04T05:10:11.140Z,22.93
2018-03-04T05:12:39.054Z,19.27
2018-03-04T05:15:07.028Z,11.00
2018-03-04T05:17:35.034Z,14.87
2018-03-04T05:20:03.124Z,19.77
2018-03-04T05:22:31.085Z,22.90
2018-03-04T05:24:59.084Z,21.63
2018-03-04T05:27:27.045Z,12.37
2018-03-04T05:29:54.974Z,19.57
2018-03-04T05:32:23.444Z,24.60
2018-03-04T05:34:51.472Z,19.50
2018-03-04T05:37:19.406Z,26.03
2018-03-04T05:39:47.549Z,33.07
2018-03-04T05:42:15.469Z,34.07
2018-03-04T05:44:43.438Z,29.70
2018-03-04T05:47:11.418Z,37.27
2018-03-04T05:49:39.374Z,39.70
2018-03-04T05:52:07.371Z,56.50
2018-03-04T05:54:35.295Z,47.73
2018-03-04T05:57:03.213Z,55.80
2018-03-04T05:59:31.228Z,88.80
2018-03-04T06:01:59.213Z,63.77
2018-03-04T06:04:27.085Z,108.27
2018-03-04T06:06:56.063Z,76.73
2018-03-04T06:09:24.045Z,80.43
2018-03-04T06:11:51.984Z,102.00
2018-03-04T06:14:19.813Z,120.40
2018-03-04T06:16:47.805Z,143.20
2018-03-04T06:19:15.778Z,164.37
2018-03-04T06:21:43.896Z,221.30
2018-03-04T06:24:11.825Z,147.33
2018-03-04T06:26:39.767Z,120.53
2018-03-04T06:29:07.721Z,85.90
2018-03-04T06:31:35.638Z,105.30
2018-03-04T06:34:04.109Z,121.33
2018-03-04T06:36:32.125Z,100.10
2018-03-04T06:39:00.055Z,115.60
2018-03-04T06:41:27.968Z,116.43
2018-03-04T06:43:55.969Z,146.53
2018-03-04T06:46:23.940Z,196.63
2018-03-04T06:48:51.882Z,198.90
2018-03-04T06:51:19.859Z,185.53
2018-03-04T06:53:47.865Z,118.13
2018-03-04T06:56:15.844Z,125.07
2018-03-04T06:58:43.806Z,124.40
2018-03-04T07:01:11.768Z,133.80
2018-03-04T07:03:39.814Z,128.10
2018-03-04T07:06:07.746Z,88.13
2018-03-04T07:08:35.764Z,112.93
2018-03-04T07:11:03.716Z,93.63
2018-03-04T07:13:31.703Z,99.90
2018-03-04T07:15:59.686Z,110.77
2018-03-04T07:18:27.746Z,90.50
2018-03-04T07:20:55.774Z,94.03
2018-03-04T07:23:23.757Z,88.00
2018-03-04T07:25:51.677Z,74.90
2018-03-04T07:28:19.670Z,98.33
2018-03-04T07:30:47.651Z,98.23
2018-03-04T07:33:15.606Z,132.33
2018-03-04T07:35:43.989Z,137.20
2018-03-04T07:38:11.901Z,193.40
2018-03-04T07:40:39.897Z,237.63
2018-03-04T07:43:07.857Z,186.10
2018-03-04T07:45:35.873Z,179.93
2018-03-04T07:48:03.836Z,193.80
2018-03-04T07:50:31.804Z,215.77
2018-03-04T07:52:59.741Z,220.33
2018-03-04T07:55:27.690Z,215.33
2018-03-04T07:57:55.653Z,151.43
2018-03-04T08:00:23.665Z,100.77
2018-03-04T08:02:51.638Z,68.30
2018-03-04T08:05:19.594Z,62.87
2018-03-04T08:07:47.566Z,61.00
2018-03-04T08:10:15.598Z,40.90
2018-03-04T08:12:43.554Z,77.60
2018-03-04T08:15:11.518Z,70.83
2018-03-04T08:17:39.534Z,60.10
2018-03-04T08:20:07.481Z,80.50
2018-03-04T08:22:35.487Z,258.37
2018-03-04T08:25:15.086Z,60.53
2018-03-04T08:27:54.946Z,30.27
2018-03-04T08:30:23.658Z,23.87
2018-03-04T08:32:51.722Z,25.10
2018-03-04T08:35:19.718Z,54.10
2018-03-04T08:37:48.084Z,50.73
2018-03-04T08:40:16.073Z,82.57
2018-03-04T08:42:44.097Z,96.20
2018-03-04T08:45:12.575Z,100.60
2018-03-04T08:47:40.513Z,125.77
2018-03-04T08:50:08.461Z,119.27
2018-03-04T08:52:36.435Z,138.37
2018-03-04T08:55:04.367Z,138.93
2018-03-04T08:57:32.341Z,355.57
2018-03-04T09:00:00.236Z,189.47
2018-03-04T09:02:28.197Z,170.93
2018-03-04T09:04:56.126Z,161.53
2018-03-04T09:07:24.169Z,213.33
2018-03-04T09:09:52.137Z,156.27
2018-03-04T09:12:20.077Z,172.57
2018-03-04T09:14:48.436Z,122.03
2018-03-04T09:17:17.116Z,96.00
2018-03-04T09:19:45.272Z,92.23
2018-03-04T09:22:13.864Z,101.27
2018-03-04T09:24:42.540Z,83.00
2018-03-04T09:27:11.132Z,70.43
2018-03-04T09:29:39.511Z,42.97
2018-03-04T09:32:08.101Z,37.40
2018-03-04T09:34:36.616Z,52.90
2018-03-04T09:37:05.166Z,41.37
2018-03-04T09:39:33.869Z,29.60
2018-03-04T09:42:02.328Z,22.17
2018-03-04T09:44:30.636Z,32.67
2018-03-04T09:46:58.583Z,63.50
2018-03-04T09:49:26.484Z,25.90
2018-03-04T09:51:54.452Z,45.33
2018-03-04T09:54:23.517Z,20.27
2018-03-04T09:56:52.933Z,24.90
2018-03-04T09:59:20.895Z,12.40
2018-03-04T10:01:48.817Z,10.63
2018-03-04T10:04:16.821Z,17.80
2018-03-04T10:06:44.750Z,18.27
2018-03-04T10:09:12.656Z,10.00
2018-03-04T10:11:40.699Z,15.97
2018-03-04T10:14:08.707Z,23.53
2018-03-04T10:16:36.647Z,13.23
2018-03-04T10:19:04.574Z,19.67
2018-03-04T10:21:32.537Z,29.40
2018-03-04T10:24:00.478Z,16.37
2018-03-04T10:26:29.393Z,12.63
2018-03-04T10:28:57.390Z,9.20
2018-03-04T10:31:25.436Z,11.03
2018-03-04T10:33:53.382Z,18.97
2018-03-04T10:36:21.342Z,7.77
2018-03-04T10:38:49.292Z,4.23
2018-03-04T10:41:17.451Z,6.73
2018-03-04T10:43:45.428Z,12.40
2018-03-04T10:46:13.386Z,5.30
2018-03-04T10:48:41.371Z,27.77
2018-03-04T10:51:09.378Z,17.47
2018-03-04T10:53:37.225Z,14.77
2018-03-04T10:56:05.101Z,20.23
2018-03-04T10:58:33.053Z,14.93
2018-03-04T11:01:14.922Z,7.60
2018-03-04T11:03:42.867Z,19.43
2018-03-04T11:06:10.947Z,8.07
2018-03-04T11:08:39.196Z,18.30
2018-03-04T11:11:07.150Z,10.40
2018-03-04T11:13:35.090Z,22.20
2018-03-04T11:16:03.051Z,12.90
2018-03-04T11:18:31.058Z,13.33
2018-03-04T11:20:58.982Z,7.70
2018-03-04T11:23:26.935Z,6.00
2018-03-04T11:25:54.919Z,5.67
2018-03-04T11:28:22.857Z,8.33
2018-03-04T11:30:50.802Z,10.43
2018-03-04T11:33:18.796Z,2.90
2018-03-04T11:35:46.728Z,6.03
2018-03-04T11:38:14.662Z,6.60
2018-03-04T11:40:42.664Z,4.30
2018-03-04T11:43:11.104Z,8.07
2018-03-04T11:45:38.954Z,5.67
2018-03-04T11:48:06.912Z,4.07
2018-03-04T11:50:34.806Z,6.80
2018-03-04T11:53:02.753Z,6.23
2018-03-04T11:55:30.728Z,3.50
2018-03-04T11:57:58.715Z,19.97
2018-03-04T12:00:26.658Z,8.37
2018-03-04T12:02:54.623Z,6.43
2018-03-04T12:05:22.554Z,6.83
2018-03-04T12:07:50.514Z,4.87
2018-03-04T12:10:18.436Z,6.73
2018-03-04T12:12:46.421Z,3.90
2018-03-04T12:15:14.467Z,5.80
2018-03-04T12:17:42.515Z,2.37
2018-03-04T12:20:10.482Z,2.50
2018-03-04T12:22:38.407Z,2.10
2018-03-04T12:25:06.297Z,1.90
2018-03-04T12:27:34.178Z,7.97
2018-03-04T12:30:02.127Z,3.00
2018-03-04T12:32:30.127Z,10.47
2018-03-04T12:34:58.097Z,49.40
2018-03-04T12:37:26.093Z,12.17
2018-03-04T12:39:54.060Z,5.17
2018-03-04T12:42:21.933Z,3.40
2018-03-04T12:44:50.268Z,8.13
2018-03-04T12:47:18.135Z,4.80
2018-03-04T12:49:46.130Z,8.10
2018-03-04T12:52:14.040Z,3.83
2018-03-04T12:54:42.023Z,2.90
2018-03-04T12:57:10.035Z,2.40
2018-03-04T12:59:38.014Z,2.60
2018-03-04T13:02:05.998Z,2.30
2018-03-04T13:04:33.986Z,2.53
2018-03-04T13:07:01.908Z,2.63
2018-03-04T13:09:29.825Z,3.33
2018-03-04T13:11:57.810Z,6.40
2018-03-04T13:14:25.793Z,6.50
2018-03-04T13:16:53.755Z,10.90
2018-03-04T13:19:22.025Z,9.60
2018-03-04T13:21:49.945Z,5.33
2018-03-04T13:24:17.868Z,7.10
2018-03-04T13:26:45.845Z,8.37
2018-03-04T13:29:13.814Z,9.80
2018-03-04T13:31:41.799Z,16.90
2018-03-04T13:34:09.737Z,22.63
2018-03-04T13:36:37.702Z,22.90
2018-03-04T13:39:05.642Z,33.03
2018-03-04T13:41:33.583Z,40.03
2018-03-04T13:44:01.546Z,53.20
2018-03-04T13:46:29.740Z,54.17
2018-03-04T13:48:57.714Z,45.60
2018-03-04T13:51:25.663Z,74.47
2018-03-04T13:53:53.637Z,69.80
2018-03-04T13:56:21.507Z,73.13
2018-03-04T13:58:49.558Z,65.17
2018-03-04T14:01:17.538Z,57.80
2018-03-04T14:03:45.474Z,46.00
2018-03-04T14:06:13.426Z,21.90
2018-03-04T14:08:41.534Z,15.63
2018-03-04T14:11:09.502Z,32.03
2018-03-04T14:13:37.404Z,57.43
2018-03-04T14:16:05.355Z,95.03
2018-03-04T14:18:33.370Z,53.90
2018-03-04T14:21:01.420Z,35.73
2018-03-04T14:23:29.448Z,42.93
2018-03-04T14:25:57.375Z,52.80
2018-03-04T14:28:25.335Z,60.90
2018-03-04T14:30:53.288Z,63.07
2018-03-04T14:33:21.203Z,63.50
2018-03-04T14:35:49.152Z,65.30
2018-03-04T14:38:17.072Z,79.30
2018-03-04T14:40:45.043Z,64.43
2018-03-04T14:43:13.017Z,47.37
2018-03-04T14:45:40.955Z,53.83
2018-03-04T14:48:09.174Z,70.37
2018-03-04T14:50:37.133Z,77.13
2018-03-04T14:53:05.143Z,55.40
2018-03-04T14:55:33.109Z,42.83
2018-03-04T14:58:01.114Z,41.70
2018-03-04T15:00:29.162Z,21.60
2018-03-04T15:02:57.137Z,25.60
2018-03-04T15:05:25.062Z,20.77
2018-03-04T15:07:53.065Z,53.13
2018-03-04T15:10:21.088Z,54.00
2018-03-04T15:12:49.089Z,30.83
2018-03-04T15:15:17.061Z,20.70
2018-03-04T15:17:45.000Z,28.33
2018-03-04T15:20:12.944Z,36.80
2018-03-04T15:22:40.926Z,43.83
2018-03-04T15:25:08.866Z,55.80
2018-03-04T15:27:36.857Z,56.90
2018-03-04T15:30:04.802Z,58.50
2018-03-04T15:32:32.703Z,70.10
2018-03-04T15:35:00.673Z,99.90
2018-03-04T15:37:28.573Z,94.27
2018-03-04T15:39:56.425Z,95.03
2018-03-04T15:42:24.460Z,108.27
2018-03-04T15:44:52.364Z,155.53
2018-03-04T15:47:20.308Z,126.73
2018-03-04T15:49:48.535Z,109.10
2018-03-04T15:52:16.531Z,108.30
2018-03-04T15:54:44.498Z,91.10
2018-03-04T15:57:12.484Z,87.30
2018-03-04T15:59:40.402Z,88.47
2018-03-04T16:02:08.436Z,94.27
2018-03-04T16:04:36.382Z,77.27
2018-03-04T16:07:04.266Z,67.40
2018-03-04T16:09:32.263Z,55.53
2018-03-04T16:12:00.227Z,154.83
2018-03-04T16:14:28.246Z,130.33
2018-03-04T16:16:56.300Z,88.70
2018-03-04T16:19:24.597Z,79.40
2018-03-04T16:21:52.786Z,98.40
2018-03-04T16:24:21.251Z,94.33
2018-03-04T16:26:49.774Z,89.53
2018-03-04T16:29:18.316Z,77.03
2018-03-04T16:31:46.876Z,117.77
2018-03-04T16:34:14.832Z,182.70
2018-03-04T16:36:42.801Z,199.70
2018-03-04T16:39:10.665Z,138.93
2018-03-04T16:41:38.642Z,135.47
2018-03-04T16:44:06.657Z,139.00
2018-03-04T16:46:34.649Z,127.03
2018-03-04T16:49:02.597Z,154.27
2018-03-04T16:51:30.847Z,197.77
2018-03-04T16:53:58.819Z,155.80
2018-03-04T16:56:26.779Z,166.20
2018-03-04T16:58:54.697Z,170.60
2018-03-04T17:01:22.617Z,192.53
2018-03-04T17:03:50.583Z,133.73
2018-03-04T17:06:18.589Z,136.13
2018-03-04T17:08:46.554Z,127.57
2018-03-04T17:11:14.594Z,150.00
2018-03-04T17:13:42.577Z,152.93
2018-03-04T17:16:10.577Z,164.17
2018-03-04T17:18:38.567Z,132.43
2018-03-04T17:21:06.568Z,81.10
2018-03-04T17:23:34.553Z,50.73
2018-03-04T17:26:02.533Z,46.63
2018-03-04T17:28:30.541Z,47.93
2018-03-04T17:30:58.488Z,53.53
2018-03-04T17:33:26.433Z,79.47
2018-03-04T17:35:54.345Z,92.90
2018-03-04T17:38:22.306Z,84.33
2018-03-04T17:40:50.498Z,84.13
2018-03-04T17:43:18.449Z,95.03
2018-03-04T17:45:46.415Z,89.83
2018-03-04T17:48:14.377Z,85.60
2018-03-04T17:50:42.342Z,106.20
2018-03-04T17:53:10.670Z,92.90
2018-03-04T17:55:38.601Z,81.80
2018-03-04T17:58:06.593Z,72.13
2018-03-04T18:00:34.474Z,67.97
2018-03-04T18:03:02.385Z,56.33
2018-03-04T18:05:30.304Z,53.43
2018-03-04T18:07:58.297Z,108.07
2018-03-04T18:10:26.293Z,149.93
2018-03-04T18:12:54.218Z,109.77
2018-03-04T18:15:22.144Z,101.30
2018-03-04T18:17:50.199Z,95.30
2018-03-04T18:20:18.105Z,67.77
2018-03-04T18:22:45.932Z,94.67
2018-03-04T18:25:13.862Z,85.53
2018-03-04T18:27:41.821Z,72.90
2018-03-04T18:30:09.727Z,103.10
2018-03-04T18:32:37.656Z,80.17
2018-03-04T18:35:05.582Z,63.47
2018-03-04T18:37:33.453Z,41.13
2018-03-04T18:40:01.436Z,68.33
2018-03-04T18:42:29.442Z,82.30
2018-03-04T18:44:57.377Z,69.60
2018-03-04T18:47:25.342Z,55.83
2018-03-04T18:49:53.618Z,32.40
2018-03-04T18:52:21.604Z,26.43
2018-03-04T18:54:49.916Z,31.90
2018-03-04T18:57:17.856Z,34.93
2018-03-04T18:59:45.755Z,43.10
2018-03-04T19:02:13.635Z,64.10
2018-03-04T19:04:41.558Z,75.93
2018-03-04T19:07:09.523Z,45.67
2018-03-04T19:09:37.444Z,28.50
2018-03-04T19:12:05.513Z,46.70
2018-03-04T19:14:33.455Z,41.83
2018-03-04T19:17:01.407Z,31.93
2018-03-04T19:19:29.545Z,34.77
2018-03-04T19:21:58.076Z,18.67
2018-03-04T19:24:26.832Z,49.73
2018-03-04T19:26:55.222Z,62.73
2018-03-04T19:29:23.218Z,84.43
2018-03-04T19:31:51.190Z,61.13
2018-03-04T19:34:19.213Z,52.40
2018-03-04T19:36:47.174Z,72.93
2018-03-04T19:39:15.112Z,76.43
2018-03-04T19:41:43.066Z,63.13
2018-03-04T19:44:11.017Z,50.23
2018-03-04T19:46:38.926Z,56.17
2018-03-04T19:49:06.872Z,67.33
2018-03-04T19:51:34.788Z,81.00
2018-03-04T19:54:02.770Z,52.70
2018-03-04T19:56:30.894Z,55.70
2018-03-04T19:58:58.934Z,60.40
2018-03-04T20:01:26.858Z,67.57
2018-03-04T20:03:54.834Z,52.87
2018-03-04T20:06:22.752Z,37.33
2018-03-04T20:08:50.770Z,40.40
2018-03-04T20:11:18.744Z,38.37
2018-03-04T20:13:46.726Z,37.23
2018-03-04T20:16:14.659Z,45.47
2018-03-04T20:18:42.604Z,56.93
2018-03-04T20:21:10.544Z,57.27
2018-03-04T20:23:38.474Z,67.50
2018-03-04T20:26:06.389Z,57.00
2018-03-04T20:28:34.329Z,53.47
2018-03-04T20:31:02.244Z,75.60
2018-03-04T20:33:30.203Z,70.40
2018-03-04T20:35:58.180Z,81.80
2018-03-04T20:38:26.054Z,69.63
2018-03-04T20:40:54.022Z,49.53
2018-03-04T20:43:22.022Z,51.23
2018-03-04T20:45:50.079Z,36.43
2018-03-04T20:48:18.035Z,31.17
2018-03-04T20:50:45.981Z,53.43
2018-03-04T20:53:13.949Z,88.80
2018-03-04T20:55:42.623Z,97.00
2018-03-04T20:58:10.770Z,83.57
2018-03-04T21:00:38.684Z,85.70
2018-03-04T21:03:06.688Z,100.47
2018-03-04T21:05:34.625Z,80.60
2018-03-04T21:08:02.594Z,64.93
2018-03-04T21:10:30.530Z,66.13
2018-03-04T21:13:07.458Z,49.50
2018-03-04T21:15:38.270Z,35.97
2018-03-04T21:18:06.258Z,45.37
2018-03-04T21:20:34.782Z,44.07
2018-03-04T21:23:02.757Z,61.60
2018-03-04T21:25:30.773Z,61.80
2018-03-04T21:27:58.617Z,57.83
2018-03-04T21:30:26.561Z,63.87
2018-03-04T21:32:54.513Z,62.77
2018-03-04T21:35:22.472Z,73.27
2018-03-04T21:37:50.474Z,74.60
2018-03-04T21:40:18.461Z,77.63
2018-03-04T21:42:46.419Z,72.07
2018-03-04T21:45:14.377Z,81.10
2018-03-04T21:47:42.349Z,71.07
2018-03-04T21:50:10.357Z,86.80
2018-03-04T21:52:38.357Z,69.80
2018-03-04T21:55:06.298Z,72.30
2018-03-04T21:57:34.310Z,69.40
2018-03-04T22:00:02.694Z,74.27
2018-03-04T22:02:30.653Z,49.90
2018-03-04T22:04:58.593Z,59.27
2018-03-04T22:07:26.640Z,78.60
2018-03-04T22:09:54.548Z,79.83
2018-03-04T22:12:22.521Z,75.40
2018-03-04T22:14:50.515Z,68.37
2018-03-04T22:17:18.476Z,64.67
2018-03-04T22:19:46.418Z,56.53
2018-03-04T22:22:14.378Z,52.43
2018-03-04T22:24:42.317Z,55.83
2018-03-04T22:27:10.271Z,39.90
2018-03-04T22:29:38.193Z,50.37
2018-03-04T22:32:06.182Z,67.17
2018-03-04T22:34:34.253Z,58.73
2018-03-04T22:37:02.145Z,89.43
2018-03-04T22:39:30.117Z,76.70
2018-03-04T22:41:58.183Z,75.27
2018-03-04T22:44:26.185Z,104.73
2018-03-04T22:46:54.137Z,70.83
2018-03-04T22:49:22.118Z,59.90
2018-03-04T22:51:50.043Z,64.17
2018-03-04T22:54:17.990Z,60.37
2018-03-04T22:56:45.881Z,100.60
2018-03-04T22:59:13.821Z,88.43
2018-03-04T23:01:42.071Z,72.33
2018-03-04T23:04:10.061Z,47.37
2018-03-04T23:06:38.037Z,35.03
2018-03-04T23:09:06.049Z,35.03
2018-03-04T23:11:34.001Z,20.80
2018-03-04T23:14:01.926Z,21.90
2018-03-04T23:16:29.856Z,59.93
2018-03-04T23:18:57.820Z,42.03
2018-03-04T23:21:25.776Z,27.63
2018-03-04T23:23:53.688Z,32.37
2018-03-04T23:26:21.666Z,53.07
2018-03-04T23:28:49.629Z,33.33
2018-03-04T23:31:17.584Z,26.50
2018-03-04T23:33:45.655Z,27.43
2018-03-04T23:36:13.665Z,29.43
2018-03-04T23:38:41.526Z,30.33
2018-03-04T23:41:09.520Z,43.50
2018-03-04T23:43:37.460Z,27.60
2018-03-04T23:46:05.430Z,17.73
2018-03-04T23:48:33.424Z,33.17
2018-03-04T23:51:01.389Z,23.17
2018-03-04T23:53:29.369Z,19.93
2018-03-04T23:55:57.335Z,21.40
2018-03-04T23:58:25.332Z,24.43
